createdAt,value
2018-09-04T00:00:11.204Z,18.50
2018-09-04T00:02:39.608Z,18.50
2018-09-04T00:05:08.136Z,18.60
2018-09-04T00:07:36.540Z,18.60
2018-09-04T00:10:06.299Z,18.60
2018-09-04T00:12:35.032Z,18.60
2018-09-04T00:15:03.467Z,18.50
2018-09-04T00:17:31.856Z,18.50
2018-09-04T00:20:00.481Z,18.60
2018-09-04T00:22:28.965Z,18.60
2018-09-04T00:24:57.440Z,18.60
2018-09-04T00:27:25.853Z,18.60
2018-09-04T00:29:54.308Z,18.60
2018-09-04T00:32:22.692Z,18.60
2018-09-04T00:34:51.098Z,18.60
2018-09-04T00:37:19.640Z,18.60
2018-09-04T00:39:48.684Z,18.60
2018-09-04T00:42:17.064Z,18.60
2018-09-04T00:44:45.460Z,18.60
2018-09-04T00:47:13.872Z,18.60
2018-09-04T00:49:42.251Z,18.60
2018-09-04T00:52:10.745Z,18.50
2018-09-04T00:54:39.153Z,18.60
2018-09-04T00:57:07.822Z,18.60
2018-09-04T00:59:36.300Z,18.50
2018-09-04T01:02:04.738Z,18.50
2018-09-04T01:04:33.157Z,18.50
2018-09-04T01:07:01.572Z,18.50
2018-09-04T01:09:30.056Z,18.40
2018-09-04T01:11:58.475Z,18.40
2018-09-04T01:14:26.860Z,18.30
2018-09-04T01:16:55.272Z,18.30
2018-09-04T01:19:23.707Z,18.20
2018-09-04T01:21:52.115Z,18.20
2018-09-04T01:24:20.573Z,18.20
2018-09-04T01:26:48.955Z,18.20
2018-09-04T01:29:17.464Z,18.20
2018-09-04T01:31:45.868Z,18.20
2018-09-04T01:34:14.310Z,18.20
2018-09-04T01:36:42.682Z,18.20
2018-09-04T01:39:11.069Z,18.10
2018-09-04T01:41:39.460Z,18.20
2018-09-04T01:44:07.840Z,18.10
2018-09-04T01:46:36.340Z,18.10
2018-09-04T01:49:04.786Z,18.10
2018-09-04T01:51:33.188Z,18.10
2018-09-04T01:54:01.580Z,18.10
2018-09-04T01:56:36.645Z,18.10
2018-09-04T01:59:05.239Z,18.10
2018-09-04T02:01:34.338Z,18.10
2018-09-04T02:04:02.766Z,18.10
2018-09-04T02:06:31.201Z,18.00
2018-09-04T02:08:59.596Z,18.00
2018-09-04T02:11:27.988Z,17.90
2018-09-04T02:13:56.385Z,17.80
2018-09-04T02:16:24.856Z,17.70
2018-09-04T02:18:53.406Z,17.60
2018-09-04T02:21:21.795Z,17.60
2018-09-04T02:23:50.200Z,17.50
2018-09-04T02:26:18.625Z,17.50
2018-09-04T02:28:47.122Z,17.40
2018-09-04T02:31:15.512Z,17.30
2018-09-04T02:33:43.884Z,17.30
2018-09-04T02:36:12.269Z,17.20
2018-09-04T02:38:40.696Z,17.20
2018-09-04T02:41:09.440Z,17.20
2018-09-04T02:43:37.885Z,17.10
2018-09-04T02:46:06.326Z,17.10
2018-09-04T02:48:34.825Z,17.10
2018-09-04T02:51:03.298Z,17.00
2018-09-04T02:53:31.675Z,17.00
2018-09-04T02:56:00.136Z,17.00
2018-09-04T02:58:28.592Z,16.90
2018-09-04T03:00:57.132Z,16.90
2018-09-04T03:03:25.503Z,16.90
2018-09-04T03:05:53.884Z,16.90
2018-09-04T03:08:22.256Z,16.80
2018-09-04T03:10:50.648Z,16.80
2018-09-04T03:13:19.122Z,16.80
2018-09-04T03:15:47.495Z,16.80
2018-09-04T03:18:15.876Z,16.80
2018-09-04T03:20:44.289Z,16.80
2018-09-04T03:23:12.751Z,16.80
2018-09-04T03:25:41.133Z,16.80
2018-09-04T03:28:09.575Z,16.80
2018-09-04T03:30:38.036Z,16.80
2018-09-04T03:33:06.628Z,16.80
2018-09-04T03:35:35.025Z,16.70
2018-09-04T03:38:03.422Z,16.70
2018-09-04T03:40:31.872Z,16.70
2018-09-04T03:43:00.344Z,16.70
2018-09-04T03:45:28.723Z,16.70
2018-09-04T03:47:57.126Z,16.70
2018-09-04T03:50:25.500Z,16.70
2018-09-04T03:52:53.955Z,16.70
2018-09-04T03:55:22.374Z,16.80
2018-09-04T03:57:50.809Z,16.90
2018-09-04T04:00:19.230Z,16.90
2018-09-04T04:02:47.642Z,16.90
2018-09-04T04:05:16.084Z,17.00
2018-09-04T04:07:45.537Z,17.10
2018-09-04T04:10:14.181Z,17.20
2018-09-04T04:12:42.589Z,17.20
2018-09-04T04:15:10.989Z,17.20
2018-09-04T04:17:39.406Z,17.30
2018-09-04T04:20:07.946Z,17.30
2018-09-04T04:22:36.400Z,17.30
2018-09-04T04:25:04.903Z,17.40
2018-09-04T04:27:33.307Z,17.30
2018-09-04T04:30:01.835Z,17.30
2018-09-04T04:32:31.648Z,17.30
2018-09-04T04:35:00.133Z,17.30
2018-09-04T04:37:28.702Z,17.20
2018-09-04T04:39:57.193Z,17.10
2018-09-04T04:42:25.535Z,17.10
2018-09-04T04:44:53.964Z,17.10
2018-09-04T04:47:27.611Z,17.00
2018-09-04T04:49:56.099Z,17.00
2018-09-04T04:52:24.752Z,16.90
2018-09-04T04:54:53.184Z,16.90
2018-09-04T04:57:21.612Z,16.90
2018-09-04T04:59:50.005Z,16.90
2018-09-04T05:02:18.577Z,16.90
2018-09-04T05:04:46.981Z,16.90
2018-09-04T05:07:15.377Z,16.90
2018-09-04T05:09:45.045Z,16.90
2018-09-04T05:12:13.501Z,17.00
2018-09-04T05:14:42.008Z,17.00
2018-09-04T05:17:10.492Z,17.00
2018-09-04T05:19:39.001Z,17.00
2018-09-04T05:22:07.384Z,17.10
2018-09-04T05:24:35.766Z,17.10
2018-09-04T05:27:04.210Z,17.10
2018-09-04T05:29:32.777Z,17.10
2018-09-04T05:33:05.215Z,17.10
2018-09-04T05:35:38.468Z,17.10
2018-09-04T05:38:06.911Z,17.20
2018-09-04T05:40:35.282Z,17.20
2018-09-04T05:43:05.773Z,17.20
2018-09-04T05:45:35.070Z,17.30
2018-09-04T05:48:10.815Z,17.30
2018-09-04T05:50:39.357Z,17.40
2018-09-04T05:53:07.775Z,17.50
2018-09-04T05:55:36.239Z,17.60
2018-09-04T05:58:04.631Z,17.70
2018-09-04T06:00:43.473Z,17.70
2018-09-04T06:03:12.058Z,17.90
2018-09-04T06:05:40.696Z,18.00
2018-09-04T06:08:09.157Z,17.90
2018-09-04T06:10:37.568Z,17.90
2018-09-04T06:13:06.061Z,18.00
2018-09-04T06:15:34.446Z,18.00
2018-09-04T06:18:02.857Z,18.00
2018-09-04T06:20:31.230Z,18.10
2018-09-04T06:22:59.637Z,18.20
2018-09-04T06:25:27.995Z,18.30
2018-09-04T06:27:56.415Z,18.30
2018-09-04T06:30:24.906Z,18.40
2018-09-04T06:32:53.309Z,18.50
2018-09-04T06:35:21.717Z,18.50
2018-09-04T06:37:50.085Z,18.40
2018-09-04T06:40:18.478Z,18.50
2018-09-04T06:42:46.891Z,18.60
2018-09-04T06:45:15.289Z,18.70
2018-09-04T06:47:45.676Z,18.80
2018-09-04T06:50:14.112Z,18.90
2018-09-04T06:52:42.487Z,18.90
2018-09-04T06:55:11.016Z,18.90
2018-09-04T06:57:39.392Z,19.10
2018-09-04T07:00:10.488Z,19.10
2018-09-04T07:02:38.870Z,19.20
2018-09-04T07:05:08.048Z,19.40
2018-09-04T07:07:36.452Z,19.20
2018-09-04T07:10:04.962Z,19.20
2018-09-04T07:12:33.444Z,19.30
2018-09-04T07:15:01.906Z,19.40
2018-09-04T07:17:30.290Z,19.50
2018-09-04T07:19:58.715Z,19.60
2018-09-04T07:22:27.128Z,19.80
2018-09-04T07:24:55.533Z,20.00
2018-09-04T07:27:23.944Z,20.00
2018-09-04T07:29:52.429Z,20.10
2018-09-04T07:32:20.819Z,20.20
2018-09-04T07:34:49.204Z,20.40
2018-09-04T07:37:17.693Z,20.50
2018-09-04T07:39:46.098Z,20.60
2018-09-04T07:42:14.509Z,20.50
2018-09-04T07:44:42.908Z,20.80
2018-09-04T07:47:11.324Z,21.00
2018-09-04T07:49:39.744Z,21.10
2018-09-04T07:52:08.264Z,21.00
2018-09-04T07:54:36.687Z,20.90
2018-09-04T07:57:05.125Z,21.00
2018-09-04T07:59:33.550Z,20.70
2018-09-04T08:02:02.395Z,20.80
2018-09-04T08:04:30.797Z,20.80
2018-09-04T08:06:59.240Z,20.60
2018-09-04T08:09:27.655Z,20.80
2018-09-04T08:11:56.046Z,21.10
2018-09-04T08:14:24.505Z,21.30
2018-09-04T08:16:52.936Z,21.30
2018-09-04T08:19:21.324Z,21.10
2018-09-04T08:21:49.740Z,20.80
2018-09-04T08:24:18.132Z,20.80
2018-09-04T08:26:46.635Z,20.70
2018-09-04T08:29:15.037Z,20.90
2018-09-04T08:31:43.560Z,21.10
2018-09-04T08:34:12.129Z,21.50
2018-09-04T08:36:40.529Z,21.30
2018-09-04T08:39:09.483Z,21.40
2018-09-04T08:41:37.932Z,21.50
2018-09-04T08:44:06.380Z,21.70
2018-09-04T08:46:35.124Z,21.60
2018-09-04T08:49:03.521Z,21.90
2018-09-04T08:51:31.990Z,22.00
2018-09-04T08:54:00.608Z,21.90
2018-09-04T08:56:29.032Z,21.60
2018-09-04T08:58:57.427Z,21.50
2018-09-04T09:01:25.849Z,21.60
2018-09-04T09:03:54.306Z,22.00
2018-09-04T09:06:22.709Z,21.80
2018-09-04T09:08:51.108Z,21.70
2018-09-04T09:11:19.610Z,22.10
2018-09-04T09:13:48.012Z,22.20
2018-09-04T09:16:16.531Z,22.40
2018-09-04T09:18:45.002Z,22.60
2018-09-04T09:21:13.401Z,22.80
2018-09-04T09:23:42.059Z,23.00
2018-09-04T09:26:10.548Z,22.50
2018-09-04T09:28:38.928Z,22.20
2018-09-04T09:31:07.390Z,22.30
2018-09-04T09:33:35.804Z,22.30
2018-09-04T09:36:04.217Z,22.20
2018-09-04T09:38:32.644Z,22.20
2018-09-04T09:41:01.090Z,22.40
2018-09-04T09:43:29.534Z,22.60
2018-09-04T09:45:57.915Z,22.70
2018-09-04T09:48:33.868Z,22.50
2018-09-04T09:51:02.287Z,22.40
2018-09-04T09:53:30.913Z,22.20
2018-09-04T09:55:59.114Z,22.60
2018-09-04T09:58:27.540Z,22.60
2018-09-04T10:01:01.285Z,22.70
2018-09-04T10:03:34.954Z,22.90
2018-09-04T10:06:03.312Z,23.00
2018-09-04T10:08:31.776Z,23.00
2018-09-04T10:11:00.175Z,23.10
2018-09-04T10:13:28.627Z,23.40
2018-09-04T10:15:57.037Z,23.70
2018-09-04T10:18:25.449Z,23.80
2018-09-04T10:20:53.850Z,24.00
2018-09-04T10:23:22.286Z,23.40
2018-09-04T10:25:50.856Z,23.60
2018-09-04T10:28:19.326Z,23.70
2018-09-04T10:30:47.740Z,23.30
2018-09-04T10:33:16.154Z,23.30
2018-09-04T10:35:44.554Z,23.50
2018-09-04T10:38:13.015Z,23.70
2018-09-04T10:40:43.463Z,23.80
2018-09-04T10:43:11.816Z,24.00
2018-09-04T10:45:45.513Z,24.30
2018-09-04T10:48:15.309Z,24.40
2018-09-04T10:50:43.708Z,24.50
2018-09-04T10:53:12.112Z,24.40
2018-09-04T10:55:40.561Z,24.10
2018-09-04T10:58:08.955Z,24.40
2018-09-04T11:00:37.442Z,24.60
2018-09-04T11:03:05.855Z,24.30
2018-09-04T11:05:34.338Z,24.30
2018-09-04T11:08:02.730Z,24.30
2018-09-04T11:10:31.163Z,24.50
2018-09-04T11:12:59.605Z,24.40
2018-09-04T11:15:28.044Z,24.50
2018-09-04T11:17:56.614Z,24.70
2018-09-04T11:20:25.282Z,24.90
2018-09-04T11:22:53.687Z,25.40
2018-09-04T11:25:22.113Z,25.60
2018-09-04T11:27:50.548Z,25.80
2018-09-04T11:30:18.980Z,25.70
2018-09-04T11:32:47.406Z,25.90
2018-09-04T11:35:15.817Z,26.20
2018-09-04T11:37:44.260Z,26.20
2018-09-04T11:40:12.721Z,26.40
2018-09-04T11:42:41.519Z,26.70
2018-09-04T11:45:10.501Z,27.10
2018-09-04T11:47:41.251Z,26.70
2018-09-04T11:50:10.330Z,26.40
2018-09-04T11:52:39.244Z,26.10
2018-09-04T11:55:08.773Z,26.40
2018-09-04T11:57:37.174Z,26.30
2018-09-04T12:00:07.091Z,26.80
2018-09-04T12:02:37.230Z,26.80
2018-09-04T12:05:05.833Z,27.00
2018-09-04T12:07:34.229Z,26.80
2018-09-04T12:10:02.673Z,26.70
2018-09-04T12:12:32.364Z,26.80
2018-09-04T12:15:00.621Z,26.40
2018-09-04T12:17:29.034Z,26.70
2018-09-04T12:20:10.261Z,26.80
2018-09-04T12:22:38.939Z,26.60
2018-09-04T12:25:07.426Z,26.60
2018-09-04T12:27:35.811Z,26.30
2018-09-04T12:30:04.305Z,26.30
2018-09-04T12:32:32.716Z,26.30
2018-09-04T12:35:01.132Z,26.10
2018-09-04T12:37:29.587Z,26.20
2018-09-04T12:39:58.408Z,25.90
2018-09-04T12:42:27.643Z,26.00
2018-09-04T12:44:58.132Z,25.90
2018-09-04T12:47:26.528Z,25.60
2018-09-04T12:49:55.945Z,25.60
2018-09-04T12:52:24.401Z,25.50
2018-09-04T12:54:52.857Z,25.40
2018-09-04T12:57:21.293Z,25.40
2018-09-04T12:59:49.687Z,25.40
2018-09-04T13:02:18.200Z,25.30
2018-09-04T13:04:46.812Z,25.40
2018-09-04T13:07:15.200Z,25.60
2018-09-04T13:09:43.673Z,25.60
2018-09-04T13:12:12.130Z,25.50
2018-09-04T13:14:40.685Z,25.70
2018-09-04T13:17:09.060Z,25.90
2018-09-04T13:19:38.280Z,26.20
2018-09-04T13:22:06.736Z,26.20
2018-09-04T13:24:35.344Z,26.10
2018-09-04T13:27:03.804Z,26.00
2018-09-04T13:29:32.188Z,26.30
2018-09-04T13:32:00.596Z,26.30
2018-09-04T13:34:29.156Z,26.50
2018-09-04T13:36:57.532Z,26.50
2018-09-04T13:39:25.968Z,26.20
2018-09-04T13:41:54.371Z,26.20
2018-09-04T13:44:22.843Z,26.20
2018-09-04T13:46:51.896Z,26.20
2018-09-04T13:49:20.424Z,26.20
2018-09-04T13:51:48.775Z,26.40
2018-09-04T13:54:17.159Z,26.10
2018-09-04T13:56:45.584Z,26.20
2018-09-04T13:59:13.984Z,26.30
2018-09-04T14:01:42.412Z,26.40
2018-09-04T14:04:10.876Z,26.40
2018-09-04T14:06:39.309Z,26.40
2018-09-04T14:09:08.340Z,26.10
2018-09-04T14:11:36.756Z,26.00
2018-09-04T14:14:05.241Z,26.00
2018-09-04T14:16:43.153Z,26.10
2018-09-04T14:19:02.112Z,26.10
2018-09-04T14:21:30.748Z,26.10
2018-09-04T14:23:59.223Z,26.10
2018-09-04T14:26:27.746Z,26.30
2018-09-04T14:29:07.675Z,26.10
2018-09-04T14:31:24.560Z,26.00
2018-09-04T14:33:53.171Z,26.00
2018-09-04T14:36:21.686Z,25.80
2018-09-04T14:38:50.029Z,25.90
2018-09-04T14:41:18.504Z,25.90
2018-09-04T14:43:46.933Z,25.90
2018-09-04T14:46:15.348Z,25.90
2018-09-04T14:48:43.827Z,26.00
2018-09-04T14:51:12.397Z,26.10
2018-09-04T14:53:41.035Z,26.10
2018-09-04T14:56:09.461Z,26.30
2018-09-04T14:58:37.863Z,26.50
2018-09-04T15:01:06.337Z,26.70
2018-09-04T15:03:34.756Z,26.80
2018-09-04T15:06:03.212Z,27.00
2018-09-04T15:08:31.540Z,27.10
2018-09-04T15:10:59.960Z,27.20
2018-09-04T15:13:28.365Z,27.20
2018-09-04T15:15:56.842Z,27.10
2018-09-04T15:18:25.200Z,27.20
2018-09-04T15:20:53.643Z,26.70
2018-09-04T15:23:22.044Z,26.50
2018-09-04T15:25:50.462Z,26.20
2018-09-04T15:28:18.870Z,26.20
2018-09-04T15:30:47.524Z,25.90
2018-09-04T15:33:15.950Z,25.20
2018-09-04T15:35:44.432Z,23.40
2018-09-04T15:38:12.966Z,22.40
2018-09-04T15:40:41.428Z,21.40
2018-09-04T15:43:09.860Z,20.80
2018-09-04T15:45:38.255Z,20.40
2018-09-04T15:48:06.667Z,20.30
2018-09-04T15:50:35.098Z,20.10
2018-09-04T15:53:03.629Z,19.90
2018-09-04T15:55:32.090Z,19.90
2018-09-04T15:58:00.490Z,19.80
2018-09-04T16:00:28.941Z,19.90
2018-09-04T16:02:57.417Z,19.90
2018-09-04T16:05:27.019Z,19.90
2018-09-04T16:07:56.244Z,19.90
2018-09-04T16:10:24.758Z,19.90
2018-09-04T16:12:53.063Z,19.90
2018-09-04T16:15:21.495Z,19.90
2018-09-04T16:17:50.018Z,19.90
2018-09-04T16:20:18.490Z,19.90
2018-09-04T16:22:46.911Z,19.90
2018-09-04T16:25:15.341Z,19.90
2018-09-04T16:27:43.739Z,19.90
2018-09-04T16:30:12.396Z,20.00
2018-09-04T16:32:40.817Z,20.10
2018-09-04T16:35:09.309Z,20.20
2018-09-04T16:37:37.716Z,20.30
2018-09-04T16:40:06.246Z,20.40
2018-09-04T16:42:34.773Z,20.40
2018-09-04T16:45:03.218Z,20.50
2018-09-04T16:47:32.061Z,20.50
2018-09-04T16:50:00.597Z,20.40
2018-09-04T16:52:29.065Z,20.50
2018-09-04T16:54:57.657Z,20.40
2018-09-04T16:57:26.261Z,20.40
2018-09-04T16:59:54.669Z,20.40
2018-09-04T17:02:23.590Z,20.30
2018-09-04T17:04:52.020Z,20.30
2018-09-04T17:07:20.430Z,20.40
2018-09-04T17:09:48.931Z,20.40
2018-09-04T17:12:17.396Z,20.30
2018-09-04T17:14:45.873Z,20.30
2018-09-04T17:17:14.285Z,20.30
2018-09-04T17:19:42.831Z,20.30
2018-09-04T17:22:11.277Z,20.20
2018-09-04T17:24:39.696Z,20.30
2018-09-04T17:27:08.140Z,20.40
2018-09-04T17:29:36.607Z,20.30
2018-09-04T17:32:05.067Z,20.30
2018-09-04T17:34:33.514Z,20.20
2018-09-04T17:37:01.976Z,20.20
2018-09-04T17:39:30.409Z,20.20
2018-09-04T17:41:58.841Z,20.10
2018-09-04T17:44:27.556Z,20.20
2018-09-04T17:46:56.035Z,20.10
2018-09-04T17:49:24.492Z,20.20
2018-09-04T17:51:53.008Z,20.20
2018-09-04T17:54:21.405Z,20.20
2018-09-04T17:56:49.897Z,20.10
2018-09-04T17:59:18.328Z,20.20
2018-09-04T18:01:46.745Z,20.20
2018-09-04T18:04:15.247Z,20.20
2018-09-04T18:06:43.656Z,20.00
2018-09-04T18:09:12.140Z,20.00
2018-09-04T18:11:40.628Z,19.90
2018-09-04T18:14:09.096Z,19.90
2018-09-04T18:16:37.904Z,19.80
2018-09-04T18:19:06.352Z,19.70
2018-09-04T18:21:34.836Z,19.70
2018-09-04T18:24:03.320Z,19.60
2018-09-04T18:26:31.910Z,19.50
2018-09-04T18:29:00.337Z,19.40
2018-09-04T18:31:28.780Z,19.40
2018-09-04T18:33:57.204Z,19.30
2018-09-04T18:36:25.751Z,19.30
2018-09-04T18:38:54.248Z,19.20
2018-09-04T18:41:22.701Z,19.20
2018-09-04T18:43:51.622Z,19.20
2018-09-04T18:46:20.065Z,19.20
2018-09-04T18:48:48.611Z,19.40
2018-09-04T18:51:17.040Z,19.40
2018-09-04T18:53:45.497Z,19.30
2018-09-04T18:56:14.005Z,19.20
2018-09-04T18:58:42.827Z,19.20
2018-09-04T19:01:11.535Z,19.20
2018-09-04T19:03:40.408Z,19.20
2018-09-04T19:06:09.060Z,19.20
2018-09-04T19:08:37.709Z,19.20
2018-09-04T19:11:06.365Z,19.20
2018-09-04T19:13:35.552Z,19.20
2018-09-04T19:16:04.523Z,19.10
2018-09-04T19:18:33.335Z,19.10
2018-09-04T19:21:01.755Z,19.00
2018-09-04T19:23:30.258Z,19.00
2018-09-04T19:25:59.016Z,19.00
2018-09-04T19:28:27.878Z,18.90
2018-09-04T19:30:56.520Z,18.80
2018-09-04T19:33:25.650Z,18.80
2018-09-04T19:35:54.941Z,18.80
2018-09-04T19:38:23.384Z,18.80
2018-09-04T19:40:52.215Z,18.70
2018-09-04T19:43:20.751Z,18.70
2018-09-04T19:45:49.341Z,18.70
2018-09-04T19:48:17.814Z,18.60
2018-09-04T19:50:46.292Z,18.60
2018-09-04T19:53:14.832Z,18.60
2018-09-04T19:55:43.236Z,18.60
2018-09-04T19:58:11.696Z,18.60
2018-09-04T20:00:40.310Z,18.60
2018-09-04T20:03:08.812Z,18.60
2018-09-04T20:05:37.356Z,18.60
2018-09-04T20:08:05.870Z,18.60
2018-09-04T20:10:34.312Z,18.60
2018-09-04T20:13:02.892Z,18.60
2018-09-04T20:15:31.648Z,18.60
2018-09-04T20:18:00.090Z,18.60
2018-09-04T20:20:28.984Z,18.60
2018-09-04T20:22:57.487Z,18.60
2018-09-04T20:25:25.973Z,18.60
2018-09-04T20:27:54.460Z,18.60
2018-09-04T20:30:22.961Z,18.70
2018-09-04T20:32:51.459Z,18.70
2018-09-04T20:35:19.967Z,18.70
2018-09-04T20:37:48.356Z,18.60
2018-09-04T20:40:16.861Z,18.60
2018-09-04T20:42:45.312Z,18.60
2018-09-04T20:45:13.958Z,18.60
2018-09-04T20:47:42.571Z,18.60
2018-09-04T20:50:11.125Z,18.60
2018-09-04T20:52:39.624Z,18.50
2018-09-04T20:55:08.224Z,18.50
2018-09-04T20:57:37.196Z,18.50
2018-09-04T21:00:18.520Z,18.50
2018-09-04T21:02:58.180Z,18.50
2018-09-04T21:05:37.920Z,18.50
2018-09-04T21:08:17.596Z,18.50
2018-09-04T21:10:46.967Z,18.50
2018-09-04T21:13:15.942Z,18.50
2018-09-04T21:15:44.676Z,18.50
2018-09-04T21:18:13.279Z,18.50
2018-09-04T21:20:41.789Z,18.50
2018-09-04T21:23:10.272Z,18.60
2018-09-04T21:25:38.744Z,18.60
2018-09-04T21:28:07.355Z,18.60
2018-09-04T21:30:35.776Z,18.60
2018-09-04T21:33:05.136Z,18.70
2018-09-04T21:35:33.878Z,18.70
2018-09-04T21:38:03.029Z,18.70
2018-09-04T21:40:31.492Z,18.70
2018-09-04T21:42:59.972Z,18.70
2018-09-04T21:45:28.619Z,18.70
2018-09-04T21:47:57.445Z,18.70
2018-09-04T21:50:26.045Z,18.70
2018-09-04T21:52:55.129Z,18.60
2018-09-04T21:55:23.812Z,18.60
2018-09-04T21:57:52.426Z,18.60
2018-09-04T22:00:26.238Z,18.60
2018-09-04T22:02:56.200Z,18.60
2018-09-04T22:05:25.523Z,18.50
2018-09-04T22:07:55.244Z,18.50
2018-09-04T22:10:24.424Z,18.50
2018-09-04T22:12:52.881Z,18.50
2018-09-04T22:15:21.528Z,18.50
2018-09-04T22:18:37.764Z,18.40
2018-09-04T22:21:06.980Z,18.40
2018-09-04T22:23:36.308Z,18.40
2018-09-04T22:26:05.479Z,18.40
2018-09-04T22:28:34.471Z,18.40
2018-09-04T22:31:02.915Z,18.40
2018-09-04T22:33:31.443Z,18.30
2018-09-04T22:36:00.081Z,18.30
2018-09-04T22:38:28.520Z,18.20
2018-09-04T22:40:56.959Z,18.20
2018-09-04T22:43:25.392Z,18.20
2018-09-04T22:45:54.114Z,18.10
2018-09-04T22:48:22.794Z,18.10
2018-09-04T22:50:56.884Z,18.10
2018-09-04T22:53:27.827Z,18.00
2018-09-04T22:55:56.273Z,18.00
2018-09-04T22:58:25.140Z,18.00
2018-09-04T23:00:53.787Z,17.90
2018-09-04T23:03:22.186Z,17.90
2018-09-04T23:05:54.277Z,17.90
2018-09-04T23:08:23.617Z,17.90
2018-09-04T23:10:52.084Z,17.80
2018-09-04T23:13:20.489Z,17.80
2018-09-04T23:15:48.908Z,17.80
2018-09-04T23:18:17.376Z,17.80
2018-09-04T23:20:45.780Z,17.80
2018-09-04T23:23:14.152Z,17.70
2018-09-04T23:25:42.563Z,17.70
2018-09-04T23:28:10.980Z,17.70
2018-09-04T23:30:39.433Z,17.70
2018-09-04T23:33:07.855Z,17.70
2018-09-04T23:35:36.374Z,17.70
2018-09-04T23:38:05.098Z,17.70
2018-09-04T23:40:35.436Z,17.70
2018-09-04T23:43:04.023Z,17.70
2018-09-04T23:45:32.644Z,17.70
2018-09-04T23:48:01.213Z,17.70
2018-09-04T23:50:31.073Z,17.70
2018-09-04T23:52:59.707Z,17.70
2018-09-04T23:55:28.482Z,17.70
2018-09-04T23:57:57.015Z,17.70
